createdAt,value
2022-11-27T00:04:51.618Z,3.95
2022-11-27T00:14:55.674Z,3.77
2022-11-27T00:24:58.358Z,3.69
2022-11-27T00:35:00.859Z,3.49
2022-11-27T00:45:03.568Z,3.26
2022-11-27T00:55:06.477Z,3.09
2022-11-27T01:05:09.502Z,2.93
2022-11-27T01:15:12.188Z,2.88
2022-11-27T01:25:14.772Z,2.81
2022-11-27T01:35:17.383Z,2.78
2022-11-27T01:45:21.645Z,2.74
2022-11-27T01:55:31.087Z,2.68
2022-11-27T02:05:34.066Z,2.53
2022-11-27T02:16:18.237Z,2.36
2022-11-27T02:26:55.253Z,2.36
2022-11-27T02:37:19.576Z,2.26
2022-11-27T02:47:23.405Z,2.13
2022-11-27T02:57:27.365Z,1.91
2022-11-27T03:07:45.868Z,1.64
2022-11-27T03:18:19.149Z,1.42
2022-11-27T03:28:23.254Z,1.32
2022-11-27T03:38:25.738Z,1.36
2022-11-27T03:48:46.503Z,1.40
2022-11-27T03:59:14.119Z,1.34
2022-11-27T04:09:16.702Z,1.45
2022-11-27T04:19:19.134Z,1.52
2022-11-27T04:29:22.378Z,1.56
2022-11-27T04:39:24.897Z,1.58
2022-11-27T04:49:27.522Z,1.56
2022-11-27T04:59:30.523Z,1.50
2022-11-27T05:09:33.010Z,1.51
2022-11-27T05:19:35.433Z,1.49
2022-11-27T05:29:40.311Z,1.49
2022-11-27T05:39:42.969Z,1.45
2022-11-27T05:49:45.480Z,1.37
2022-11-27T05:59:48.159Z,1.21
2022-11-27T06:09:50.872Z,1.12
2022-11-27T06:19:53.791Z,1.05
2022-11-27T06:29:56.539Z,0.88
2022-11-27T06:39:58.890Z,0.63
2022-11-27T06:50:01.402Z,0.54
2022-11-27T07:00:06.187Z,0.61
2022-11-27T07:10:09.613Z,0.75
2022-11-27T07:20:12.703Z,0.90
2022-11-27T07:30:17.567Z,1.06
2022-11-27T07:40:20.217Z,1.27
2022-11-27T07:50:23.419Z,1.39
2022-11-27T08:00:26.367Z,1.47
2022-11-27T08:10:29.011Z,1.51
2022-11-27T08:20:31.488Z,1.48
2022-11-27T08:30:33.787Z,1.45
2022-11-27T08:40:36.627Z,1.68
2022-11-27T08:50:39.687Z,1.99
2022-11-27T09:00:42.797Z,2.28
2022-11-27T09:10:46.807Z,2.82
2022-11-27T09:21:04.091Z,3.60
2022-11-27T09:31:08.761Z,4.41
2022-11-27T09:41:11.960Z,4.70
2022-11-27T09:51:34.720Z,4.86
2022-11-27T10:01:45.281Z,5.11
2022-11-27T10:12:10.373Z,5.46
2022-11-27T10:22:28.669Z,5.53
2022-11-27T10:43:18.648Z,5.94
2022-11-27T10:53:32.463Z,6.19
2022-11-27T11:03:36.546Z,6.28
2022-11-27T11:13:42.180Z,6.49
2022-11-27T11:23:48.327Z,6.70
2022-11-27T11:33:58.917Z,6.92
2022-11-27T11:44:03.038Z,6.99
2022-11-27T11:54:35.893Z,7.10
2022-11-27T12:05:08.011Z,7.16
2022-11-27T12:15:35.134Z,7.31
2022-11-27T12:26:02.598Z,7.45
2022-11-27T12:36:28.957Z,7.54
2022-11-27T12:47:00.423Z,7.40
2022-11-27T12:57:08.643Z,7.35
2022-11-27T13:07:21.427Z,7.34
2022-11-27T13:17:30.381Z,7.20
2022-11-27T13:27:37.858Z,7.10
2022-11-27T13:37:42.754Z,7.00
2022-11-27T13:47:46.388Z,6.86
2022-11-27T13:57:54.143Z,6.81
2022-11-27T14:07:57.884Z,6.73
2022-11-27T14:18:22.427Z,6.59
2022-11-27T14:28:26.597Z,6.53
2022-11-27T14:38:31.215Z,6.47
2022-11-27T14:48:48.851Z,6.40
2022-11-27T14:58:57.841Z,6.30
2022-11-27T15:09:29.705Z,6.19
2022-11-27T15:19:31.764Z,6.09
2022-11-27T15:29:37.581Z,5.85
2022-11-27T15:39:48.551Z,5.63
2022-11-27T15:49:51.848Z,5.41
2022-11-27T15:59:54.760Z,5.37
2022-11-27T16:09:58.511Z,5.31
2022-11-27T16:20:01.630Z,5.22
2022-11-27T16:30:05.379Z,5.20
2022-11-27T16:40:08.785Z,5.18
2022-11-27T16:50:14.809Z,5.15
2022-11-27T17:00:18.232Z,5.12
2022-11-27T17:10:21.508Z,5.12
2022-11-27T17:20:25.013Z,5.12
2022-11-27T17:30:28.541Z,5.06
2022-11-27T17:40:31.133Z,4.94
2022-11-27T17:50:33.982Z,4.97
2022-11-27T18:00:40.435Z,4.93
2022-11-27T18:10:43.800Z,4.93
2022-11-27T18:20:47.160Z,4.98
2022-11-27T18:30:50.835Z,5.02
2022-11-27T18:40:53.770Z,5.11
2022-11-27T18:51:10.811Z,5.13
2022-11-27T19:01:17.356Z,5.12
2022-11-27T19:11:24.465Z,5.08
2022-11-27T19:21:31.746Z,5.14
2022-11-27T19:31:35.356Z,5.14
2022-11-27T19:41:38.244Z,5.13
2022-11-27T19:51:41.506Z,5.18
2022-11-27T20:01:45.222Z,5.21
2022-11-27T20:11:49.418Z,5.13
2022-11-27T20:21:52.167Z,5.07
2022-11-27T20:31:55.212Z,4.91
2022-11-27T20:41:57.894Z,4.76
2022-11-27T20:52:03.993Z,4.66
2022-11-27T21:02:06.382Z,4.67
2022-11-27T21:12:11.497Z,4.70
2022-11-27T21:22:14.780Z,4.80
2022-11-27T21:32:23.038Z,4.87
2022-11-27T21:42:26.929Z,4.91
2022-11-27T21:52:30.208Z,4.90
2022-11-27T22:02:34.387Z,4.90
2022-11-27T22:12:37.437Z,4.85
2022-11-27T22:22:40.063Z,4.75
2022-11-27T22:32:42.890Z,4.72
2022-11-27T22:42:46.105Z,4.71
2022-11-27T22:52:48.870Z,4.72
2022-11-27T23:02:51.718Z,4.66
2022-11-27T23:12:54.815Z,4.66
2022-11-27T23:22:57.654Z,4.68
2022-11-27T23:33:00.179Z,4.70
2022-11-27T23:43:02.686Z,4.75
2022-11-27T23:53:05.108Z,4.79
